createdAt,value
2022-10-19T00:00:15.546Z,1001.02
2022-10-19T00:01:15.565Z,1001.02
2022-10-19T00:02:15.615Z,1000.97
2022-10-19T00:03:18.273Z,1000.96
2022-10-19T00:04:16.518Z,1001.01
2022-10-19T00:05:15.498Z,1001.00
2022-10-19T00:06:15.505Z,1001.03
2022-10-19T00:07:15.483Z,1001.02
2022-10-19T00:08:15.476Z,1000.99
2022-10-19T00:09:15.465Z,1001.02
2022-10-19T00:10:15.445Z,1000.94
2022-10-19T00:11:15.457Z,1001.07
2022-10-19T00:12:15.491Z,1001.09
2022-10-19T00:13:15.419Z,1001.01
2022-10-19T00:14:15.404Z,1001.02
2022-10-19T00:15:15.399Z,1001.06
2022-10-19T00:16:15.398Z,1001.11
2022-10-19T00:17:15.395Z,1001.04
2022-10-19T00:18:15.377Z,1000.97
2022-10-19T00:19:15.367Z,1001.07
2022-10-19T00:20:15.351Z,1001.14
2022-10-19T00:21:15.340Z,1001.14
2022-10-19T00:22:15.340Z,1001.18
2022-10-19T00:23:15.353Z,1001.17
2022-10-19T00:24:15.312Z,1001.19
2022-10-19T00:25:15.300Z,1001.12
2022-10-19T00:26:15.303Z,1001.20
2022-10-19T00:27:15.289Z,1001.16
2022-10-19T00:28:15.287Z,1001.12
2022-10-19T00:29:15.355Z,1001.15
2022-10-19T00:30:15.254Z,1001.13
2022-10-19T00:31:15.248Z,1001.17
2022-10-19T00:32:15.223Z,1001.15
2022-10-19T00:33:15.249Z,1001.16
2022-10-19T00:34:15.200Z,1001.13
2022-10-19T00:35:15.200Z,1001.16
2022-10-19T00:36:15.187Z,1001.16
2022-10-19T00:37:15.185Z,1001.10
2022-10-19T00:38:15.196Z,1001.09
2022-10-19T00:39:15.156Z,1001.18
2022-10-19T00:40:15.154Z,1001.15
2022-10-19T00:41:15.149Z,1001.16
2022-10-19T00:42:16.146Z,1001.17
2022-10-19T00:43:15.121Z,1001.27
2022-10-19T00:44:15.119Z,1001.22
2022-10-19T00:45:15.119Z,1001.28
2022-10-19T00:46:15.097Z,1001.23
2022-10-19T00:47:15.090Z,1001.26
2022-10-19T00:48:15.117Z,1001.27
2022-10-19T00:49:15.087Z,1001.22
2022-10-19T00:50:15.074Z,1001.21
2022-10-19T00:51:15.146Z,1001.26
2022-10-19T00:52:15.045Z,1001.21
2022-10-19T00:53:15.026Z,1001.23
2022-10-19T00:54:15.022Z,1001.19
2022-10-19T00:55:15.014Z,1001.20
2022-10-19T00:56:15.010Z,1001.21
2022-10-19T00:57:14.987Z,1001.22
2022-10-19T00:58:14.982Z,1001.20
2022-10-19T00:59:14.982Z,1001.24
2022-10-19T01:00:14.970Z,1001.18
2022-10-19T01:01:15.030Z,1001.23
2022-10-19T01:02:14.956Z,1001.18
2022-10-19T01:03:14.930Z,1001.14
2022-10-19T01:04:14.945Z,1001.15
2022-10-19T01:05:14.903Z,1001.08
2022-10-19T01:06:14.901Z,1001.09
2022-10-19T01:07:14.884Z,1001.10
2022-10-19T01:08:14.883Z,1001.09
2022-10-19T01:09:14.878Z,1001.09
2022-10-19T01:10:14.865Z,1001.10
2022-10-19T01:11:14.862Z,1001.05
2022-10-19T01:12:14.835Z,1001.10
2022-10-19T01:13:14.820Z,1001.13
2022-10-19T01:14:14.814Z,1001.07
2022-10-19T01:15:14.817Z,1001.04
2022-10-19T01:16:14.798Z,1001.04
2022-10-19T01:17:14.804Z,1001.01
2022-10-19T01:18:14.779Z,1001.02
2022-10-19T01:19:14.760Z,1001.07
2022-10-19T01:20:14.774Z,1001.01
2022-10-19T01:21:14.744Z,1000.98
2022-10-19T01:22:14.737Z,1000.96
2022-10-19T01:23:14.724Z,1000.91
2022-10-19T01:24:14.714Z,1000.95
2022-10-19T01:25:14.704Z,1000.91
2022-10-19T01:26:14.714Z,1000.93
2022-10-19T01:27:14.686Z,1000.92
2022-10-19T01:28:14.672Z,1000.92
2022-10-19T01:29:14.687Z,1000.89
2022-10-19T01:30:15.650Z,1000.88
2022-10-19T01:31:14.662Z,1000.87
2022-10-19T01:32:14.639Z,1000.91
2022-10-19T01:33:14.631Z,1000.94
2022-10-19T01:34:14.613Z,1000.96
2022-10-19T01:35:14.591Z,1000.95
2022-10-19T01:36:14.593Z,1000.95
2022-10-19T01:37:14.593Z,1000.92
2022-10-19T01:38:14.565Z,1000.93
2022-10-19T01:39:14.561Z,1000.94
2022-10-19T01:40:14.567Z,1000.93
2022-10-19T01:41:14.552Z,1000.92
2022-10-19T01:42:14.530Z,1000.95
2022-10-19T01:43:14.530Z,1000.85
2022-10-19T01:44:14.519Z,1000.89
2022-10-19T01:45:14.525Z,1000.91
2022-10-19T01:46:14.496Z,1000.93
2022-10-19T01:47:14.481Z,1000.91
2022-10-19T01:48:14.472Z,1000.91
2022-10-19T01:49:14.463Z,1000.82
2022-10-19T01:50:15.473Z,1000.81
2022-10-19T01:51:14.458Z,1000.74
2022-10-19T01:52:14.430Z,1000.78
2022-10-19T01:53:14.430Z,1000.82
2022-10-19T01:54:14.419Z,1000.74
2022-10-19T01:55:14.404Z,1000.77
2022-10-19T01:56:14.413Z,1000.80
2022-10-19T01:57:14.392Z,1000.83
2022-10-19T01:58:14.388Z,1000.78
2022-10-19T01:59:14.362Z,1000.81
2022-10-19T02:00:14.350Z,1000.72
2022-10-19T02:01:14.347Z,1000.75
2022-10-19T02:02:14.361Z,1000.75
2022-10-19T02:03:14.318Z,1000.74
2022-10-19T02:04:14.318Z,1000.74
2022-10-19T02:05:14.306Z,1000.72
2022-10-19T02:06:14.316Z,1000.71
2022-10-19T02:07:14.274Z,1000.66
2022-10-19T02:08:14.286Z,1000.65
2022-10-19T02:09:14.267Z,1000.67
2022-10-19T02:11:14.249Z,1000.67
2022-10-19T02:12:14.236Z,1000.65
2022-10-19T02:13:14.231Z,1000.62
2022-10-19T02:14:14.218Z,1000.61
2022-10-19T02:15:14.203Z,1000.67
2022-10-19T02:16:14.201Z,1000.59
2022-10-19T02:17:14.181Z,1000.57
2022-10-19T02:18:14.204Z,1000.61
2022-10-19T02:19:14.205Z,1000.57
2022-10-19T02:20:14.153Z,1000.58
2022-10-19T02:21:14.144Z,1000.57
2022-10-19T02:22:14.138Z,1000.55
2022-10-19T02:23:14.156Z,1000.51
2022-10-19T02:24:14.113Z,1000.54
2022-10-19T02:25:14.112Z,1000.56
2022-10-19T02:26:14.099Z,1000.54
2022-10-19T02:27:14.091Z,1000.58
2022-10-19T02:28:14.098Z,1000.53
2022-10-19T02:29:14.060Z,1000.52
2022-10-19T02:30:14.053Z,1000.53
2022-10-19T02:31:14.041Z,1000.56
2022-10-19T02:32:14.049Z,1000.58
2022-10-19T02:33:14.022Z,1000.58
2022-10-19T02:34:14.003Z,1000.58
2022-10-19T02:35:14.016Z,1000.56
2022-10-19T02:36:13.987Z,1000.52
2022-10-19T02:37:14.027Z,1000.51
2022-10-19T02:38:13.969Z,1000.52
2022-10-19T02:39:13.980Z,1000.51
2022-10-19T02:40:13.947Z,1000.47
2022-10-19T02:41:13.924Z,1000.48
2022-10-19T02:42:14.925Z,1000.53
2022-10-19T02:43:13.919Z,1000.53
2022-10-19T02:44:13.937Z,1000.55
2022-10-19T02:45:13.899Z,1000.52
2022-10-19T02:46:45.823Z,1000.56
2022-10-19T02:47:13.877Z,1000.52
2022-10-19T02:48:14.870Z,1000.52
2022-10-19T02:49:13.864Z,1000.58
2022-10-19T02:50:13.873Z,1000.63
2022-10-19T02:51:13.832Z,1000.62
2022-10-19T02:52:13.821Z,1000.69
2022-10-19T02:53:13.847Z,1000.74
2022-10-19T02:54:13.826Z,1000.66
2022-10-19T02:55:14.799Z,1000.70
2022-10-19T02:56:13.815Z,1000.66
2022-10-19T02:57:13.782Z,1000.64
2022-10-19T02:58:13.770Z,1000.68
2022-10-19T02:59:13.783Z,1000.64
2022-10-19T03:00:13.751Z,1000.66
2022-10-19T03:01:13.762Z,1000.65
2022-10-19T03:02:13.738Z,1000.70
2022-10-19T03:03:13.718Z,1000.65
2022-10-19T03:04:13.724Z,1000.68
2022-10-19T03:05:13.712Z,1000.56
2022-10-19T03:06:13.700Z,1000.60
2022-10-19T03:07:13.687Z,1000.59
2022-10-19T03:08:13.682Z,1000.55
2022-10-19T03:09:13.680Z,1000.56
2022-10-19T03:10:13.676Z,1000.51
2022-10-19T03:11:13.653Z,1000.63
2022-10-19T03:12:13.641Z,1000.52
2022-10-19T03:13:13.632Z,1000.56
2022-10-19T03:14:13.622Z,1000.50
2022-10-19T03:15:13.605Z,1000.52
2022-10-19T03:16:13.631Z,1000.52
2022-10-19T03:17:13.583Z,1000.49
2022-10-19T03:18:13.595Z,1000.56
2022-10-19T03:19:13.568Z,1000.56
2022-10-19T03:20:13.562Z,1000.57
2022-10-19T03:21:13.551Z,1000.56
2022-10-19T03:22:13.538Z,1000.58
2022-10-19T03:23:13.558Z,1000.53
2022-10-19T03:24:13.517Z,1000.59
2022-10-19T03:25:13.516Z,1000.59
2022-10-19T03:26:13.483Z,1000.64
2022-10-19T03:27:13.490Z,1000.57
2022-10-19T03:28:13.491Z,1000.58
2022-10-19T03:29:13.478Z,1000.64
2022-10-19T03:30:13.481Z,1000.59
2022-10-19T03:31:13.441Z,1000.62
2022-10-19T03:32:13.496Z,1000.65
2022-10-19T03:33:13.437Z,1000.59
2022-10-19T03:34:13.415Z,1000.64
2022-10-19T03:35:13.425Z,1000.67
2022-10-19T03:36:13.397Z,1000.67
2022-10-19T03:37:13.390Z,1000.59
2022-10-19T03:38:13.378Z,1000.65
2022-10-19T03:39:13.387Z,1000.72
2022-10-19T03:40:13.359Z,1000.69
2022-10-19T03:41:13.350Z,1000.69
2022-10-19T03:42:13.352Z,1000.76
2022-10-19T03:43:13.337Z,1000.80
2022-10-19T03:44:13.326Z,1000.79
2022-10-19T03:45:13.314Z,1000.82
2022-10-19T03:46:13.297Z,1000.82
2022-10-19T03:47:13.304Z,1000.85
2022-10-19T03:48:13.289Z,1000.85
2022-10-19T03:49:13.265Z,1000.83
2022-10-19T03:50:13.276Z,1000.82
2022-10-19T03:51:13.247Z,1000.84
2022-10-19T03:52:13.245Z,1000.81
2022-10-19T03:53:13.263Z,1000.89
2022-10-19T03:54:13.227Z,1000.86
2022-10-19T03:55:13.227Z,1000.88
2022-10-19T03:56:13.202Z,1000.87
2022-10-19T03:57:13.190Z,1000.85
2022-10-19T03:58:13.185Z,1000.91
2022-10-19T03:59:13.171Z,1000.86
2022-10-19T04:00:13.171Z,1000.86
2022-10-19T04:01:13.225Z,1000.89
2022-10-19T04:02:13.142Z,1000.86
2022-10-19T04:03:13.129Z,1000.91
2022-10-19T04:04:13.136Z,1000.89
2022-10-19T04:05:13.106Z,1000.91
2022-10-19T04:06:15.762Z,1000.92
2022-10-19T04:07:13.099Z,1000.91
2022-10-19T04:08:13.083Z,1000.91
2022-10-19T04:09:13.092Z,1000.93
2022-10-19T04:10:13.050Z,1000.92
2022-10-19T04:11:13.046Z,1000.94
2022-10-19T04:12:13.052Z,1000.93
2022-10-19T04:13:13.042Z,1000.87
2022-10-19T04:14:19.023Z,1000.96
2022-10-19T04:15:14.019Z,1000.90
2022-10-19T04:16:12.998Z,1000.84
2022-10-19T04:17:12.994Z,1000.91
2022-10-19T04:18:12.979Z,1000.86
2022-10-19T04:19:12.975Z,1000.86
2022-10-19T04:20:12.956Z,1000.85
2022-10-19T04:21:12.965Z,1000.88
2022-10-19T04:22:12.965Z,1000.88
2022-10-19T04:23:12.950Z,1000.88
2022-10-19T04:24:12.914Z,1000.96
2022-10-19T04:25:12.916Z,1000.98
2022-10-19T04:26:12.914Z,1000.93
2022-10-19T04:27:12.909Z,1000.94
2022-10-19T04:28:12.874Z,1000.93
2022-10-19T04:29:12.914Z,1000.94
2022-10-19T04:30:12.861Z,1000.92
2022-10-19T04:31:12.848Z,1000.90
2022-10-19T04:32:12.866Z,1000.90
2022-10-19T04:33:12.831Z,1000.87
2022-10-19T04:34:12.827Z,1001.03
2022-10-19T04:35:12.812Z,1001.00
2022-10-19T04:36:12.794Z,1000.99
2022-10-19T04:37:12.800Z,1001.00
2022-10-19T04:38:12.781Z,1001.05
2022-10-19T04:39:12.787Z,1001.06
2022-10-19T04:40:15.099Z,1001.05
2022-10-19T04:41:13.755Z,1001.11
2022-10-19T04:42:12.757Z,1001.09
2022-10-19T04:43:12.730Z,1001.12
2022-10-19T04:44:12.741Z,1001.07
2022-10-19T04:45:12.709Z,1001.05
2022-10-19T04:46:12.698Z,1001.04
2022-10-19T04:47:12.689Z,1001.05
2022-10-19T04:48:15.052Z,1001.09
2022-10-19T04:49:16.461Z,1001.07
2022-10-19T04:50:13.662Z,1001.03
2022-10-19T04:51:12.676Z,1001.02
2022-10-19T04:52:12.648Z,1001.04
2022-10-19T04:53:12.836Z,1001.01
2022-10-19T04:54:12.621Z,1001.02
2022-10-19T04:55:12.613Z,1001.02
2022-10-19T04:56:12.615Z,1001.01
2022-10-19T04:57:12.589Z,1001.02
2022-10-19T04:58:12.581Z,1001.05
2022-10-19T04:59:12.590Z,1001.01
2022-10-19T05:00:12.563Z,1000.99
2022-10-19T05:01:12.651Z,1000.96
2022-10-19T05:02:12.536Z,1000.96
2022-10-19T05:03:12.526Z,1000.96
2022-10-19T05:04:12.553Z,1000.96
2022-10-19T05:05:12.526Z,1001.00
2022-10-19T05:06:12.501Z,1001.00
2022-10-19T05:07:12.481Z,1001.01
2022-10-19T05:08:12.567Z,1001.03
2022-10-19T05:09:12.474Z,1001.01
2022-10-19T05:10:12.482Z,1001.00
2022-10-19T05:11:12.459Z,1001.02
2022-10-19T05:12:12.445Z,1000.94
2022-10-19T05:13:12.454Z,1000.97
2022-10-19T05:14:12.444Z,1000.97
2022-10-19T05:15:12.415Z,1000.96
2022-10-19T05:16:12.400Z,1001.02
2022-10-19T05:17:12.388Z,1000.92
2022-10-19T05:18:12.375Z,1000.90
2022-10-19T05:19:12.388Z,1000.89
2022-10-19T05:20:12.356Z,1000.84
2022-10-19T05:21:12.343Z,1000.87
2022-10-19T05:22:12.362Z,1000.86
2022-10-19T05:23:12.336Z,1000.81
2022-10-19T05:24:12.314Z,1000.81
2022-10-19T05:25:12.972Z,1000.82
2022-10-19T05:26:12.294Z,1000.88
2022-10-19T05:27:12.311Z,1000.82
2022-10-19T05:28:12.289Z,1000.80
2022-10-19T05:29:12.300Z,1000.84
2022-10-19T05:30:12.258Z,1000.86
2022-10-19T05:31:12.250Z,1000.84
2022-10-19T05:32:12.228Z,1000.86
2022-10-19T05:33:12.248Z,1000.86
2022-10-19T05:34:12.217Z,1000.96
2022-10-19T05:35:12.197Z,1000.93
2022-10-19T05:36:12.186Z,1000.93
2022-10-19T05:37:12.182Z,1000.94
2022-10-19T05:38:12.185Z,1000.92
2022-10-19T05:39:12.154Z,1000.89
2022-10-19T05:40:12.157Z,1000.94
2022-10-19T05:41:12.143Z,1000.94
2022-10-19T05:42:12.162Z,1000.92
2022-10-19T05:43:12.144Z,1000.93
2022-10-19T05:44:12.113Z,1000.95
2022-10-19T05:45:12.106Z,1000.93
2022-10-19T05:46:12.099Z,1000.91
2022-10-19T05:47:12.094Z,1000.89
2022-10-19T05:48:12.101Z,1000.94
2022-10-19T05:49:12.072Z,1000.96
2022-10-19T05:50:12.076Z,1000.93
2022-10-19T05:51:12.045Z,1000.90
2022-10-19T05:52:12.034Z,1000.92
2022-10-19T05:53:12.043Z,1000.97
2022-10-19T05:54:12.024Z,1000.94
2022-10-19T05:55:12.002Z,1000.95
2022-10-19T05:56:11.994Z,1000.96
2022-10-19T05:57:11.985Z,1001.00
2022-10-19T05:58:11.992Z,1000.98
2022-10-19T05:59:11.984Z,1001.02
2022-10-19T06:00:11.964Z,1001.05
2022-10-19T06:01:11.941Z,1001.05
2022-10-19T06:02:11.952Z,1001.11
2022-10-19T06:03:11.940Z,1001.02
2022-10-19T06:04:12.004Z,1001.07
2022-10-19T06:05:11.907Z,1001.09
2022-10-19T06:06:11.906Z,1001.11
2022-10-19T06:07:11.882Z,1001.14
2022-10-19T06:08:11.880Z,1001.14
2022-10-19T06:09:11.909Z,1001.20
2022-10-19T06:10:11.864Z,1001.16
2022-10-19T06:11:11.856Z,1001.25
2022-10-19T06:12:11.841Z,1001.23
2022-10-19T06:13:11.822Z,1001.33
2022-10-19T06:14:11.843Z,1001.23
2022-10-19T06:15:11.815Z,1001.21
2022-10-19T06:16:11.821Z,1001.21
2022-10-19T06:17:11.801Z,1001.19
2022-10-19T06:18:11.784Z,1001.16
2022-10-19T06:19:11.763Z,1001.14
2022-10-19T06:20:11.770Z,1001.16
2022-10-19T06:21:11.751Z,1001.19
2022-10-19T06:22:11.760Z,1001.22
2022-10-19T06:23:11.741Z,1001.21
2022-10-19T06:24:11.714Z,1001.13
2022-10-19T06:25:11.723Z,1001.15
2022-10-19T06:26:11.700Z,1001.11
2022-10-19T06:27:11.733Z,1001.19
2022-10-19T06:28:11.685Z,1001.16
2022-10-19T06:29:11.667Z,1001.12
2022-10-19T06:30:11.683Z,1001.15
2022-10-19T06:31:11.650Z,1001.11
2022-10-19T06:32:11.653Z,1001.13
2022-10-19T06:33:11.645Z,1001.19
2022-10-19T06:34:11.654Z,1001.14
2022-10-19T06:35:11.623Z,1001.16
2022-10-19T06:36:11.610Z,1001.18
2022-10-19T06:37:11.590Z,1001.19
2022-10-19T06:38:11.607Z,1001.21
2022-10-19T06:39:11.593Z,1001.19
2022-10-19T06:40:11.612Z,1001.20
2022-10-19T06:41:11.557Z,1001.17
2022-10-19T06:42:11.538Z,1001.20
2022-10-19T06:43:11.537Z,1001.24
2022-10-19T06:44:11.547Z,1001.19
2022-10-19T06:45:11.511Z,1001.22
2022-10-19T06:46:11.517Z,1001.26
2022-10-19T06:47:11.503Z,1001.28
2022-10-19T06:48:11.487Z,1001.32
2022-10-19T06:49:11.479Z,1001.32
2022-10-19T06:50:11.478Z,1001.33
2022-10-19T06:51:11.464Z,1001.38
2022-10-19T06:52:11.445Z,1001.33
2022-10-19T06:53:11.440Z,1001.31
2022-10-19T06:54:11.443Z,1001.35
2022-10-19T06:55:11.444Z,1001.35
2022-10-19T06:56:11.449Z,1001.31
2022-10-19T06:57:11.508Z,1001.29
2022-10-19T06:58:11.380Z,1001.31
2022-10-19T06:59:11.367Z,1001.31
2022-10-19T07:00:11.383Z,1001.29
2022-10-19T07:01:11.403Z,1001.34
2022-10-19T07:02:11.353Z,1001.32
2022-10-19T07:03:11.334Z,1001.31
2022-10-19T07:04:11.330Z,1001.31
2022-10-19T07:05:11.314Z,1001.32
2022-10-19T07:06:11.321Z,1001.33
2022-10-19T07:07:11.386Z,1001.35
2022-10-19T07:08:11.303Z,1001.30
2022-10-19T07:09:11.275Z,1001.33
2022-10-19T07:10:11.299Z,1001.36
2022-10-19T07:11:11.266Z,1001.35
2022-10-19T07:12:11.259Z,1001.32
2022-10-19T07:13:11.327Z,1001.33
2022-10-19T07:14:11.231Z,1001.29
2022-10-19T07:15:11.257Z,1001.29
2022-10-19T07:16:15.788Z,1001.36
2022-10-19T07:17:12.267Z,1001.35
2022-10-19T07:18:11.219Z,1001.33
2022-10-19T07:19:11.178Z,1001.37
2022-10-19T07:20:11.166Z,1001.40
2022-10-19T07:21:11.166Z,1001.36
2022-10-19T07:22:13.523Z,1001.40
2022-10-19T07:23:12.131Z,1001.40
2022-10-19T07:24:11.119Z,1001.44
2022-10-19T07:25:11.132Z,1001.46
2022-10-19T07:26:11.133Z,1001.46
2022-10-19T07:27:11.199Z,1001.49
2022-10-19T07:28:11.100Z,1001.49
2022-10-19T07:29:11.080Z,1001.47
2022-10-19T07:30:11.072Z,1001.49
2022-10-19T07:31:11.063Z,1001.45
2022-10-19T07:32:11.051Z,1001.53
2022-10-19T07:33:11.113Z,1001.54
2022-10-19T07:34:11.028Z,1001.54
2022-10-19T07:35:11.019Z,1001.56
2022-10-19T07:36:11.013Z,1001.52
2022-10-19T07:37:11.043Z,1001.58
2022-10-19T07:38:10.985Z,1001.55
2022-10-19T07:39:10.968Z,1001.57
2022-10-19T07:40:10.963Z,1001.59
2022-10-19T07:41:10.956Z,1001.56
2022-10-19T07:42:10.987Z,1001.60
2022-10-19T07:43:10.931Z,1001.57
2022-10-19T07:44:12.161Z,1001.63
2022-10-19T07:45:10.925Z,1001.57
2022-10-19T07:46:10.903Z,1001.59
2022-10-19T07:47:10.936Z,1001.62
2022-10-19T07:48:10.904Z,1001.64
2022-10-19T07:49:10.872Z,1001.59
2022-10-19T07:50:10.863Z,1001.60
2022-10-19T07:51:10.847Z,1001.62
2022-10-19T07:52:10.843Z,1001.59
2022-10-19T07:53:10.863Z,1001.67
2022-10-19T07:54:10.827Z,1001.61
2022-10-19T07:55:10.824Z,1001.62
2022-10-19T07:56:10.808Z,1001.56
2022-10-19T07:57:10.814Z,1001.58
2022-10-19T07:58:10.788Z,1001.47
2022-10-19T07:59:10.802Z,1001.52
2022-10-19T08:00:10.766Z,1001.50
2022-10-19T08:01:10.763Z,1001.52
2022-10-19T08:02:10.834Z,1001.49
2022-10-19T08:05:12.349Z,1001.53
2022-10-19T08:06:11.727Z,1001.48
2022-10-19T08:07:10.700Z,1001.48
2022-10-19T08:08:10.689Z,1001.46
2022-10-19T08:09:15.590Z,1001.42
2022-10-19T08:10:10.670Z,1001.43
2022-10-19T08:11:10.663Z,1001.46
2022-10-19T08:12:14.801Z,1001.46
2022-10-19T08:13:10.710Z,1001.49
2022-10-19T08:14:10.632Z,1001.45
2022-10-19T08:15:10.630Z,1001.42
2022-10-19T08:16:10.630Z,1001.49
2022-10-19T08:17:10.611Z,1001.42
2022-10-19T08:18:10.614Z,1001.40
2022-10-19T08:19:10.608Z,1001.46
2022-10-19T08:20:10.625Z,1001.39
2022-10-19T08:21:10.564Z,1001.39
2022-10-19T08:22:10.581Z,1001.41
2022-10-19T08:23:10.569Z,1001.45
2022-10-19T08:24:10.533Z,1001.50
2022-10-19T08:25:10.534Z,1001.45
2022-10-19T08:26:10.519Z,1001.45
2022-10-19T08:27:10.519Z,1001.45
2022-10-19T08:28:10.527Z,1001.39
2022-10-19T08:29:10.487Z,1001.44
2022-10-19T08:30:10.477Z,1001.40
2022-10-19T08:31:10.474Z,1001.45
2022-10-19T08:32:10.467Z,1001.38
2022-10-19T08:33:10.478Z,1001.37
2022-10-19T08:34:10.463Z,1001.44
2022-10-19T08:35:10.968Z,1001.44
2022-10-19T08:36:10.450Z,1001.47
2022-10-19T08:37:20.116Z,1001.44
2022-10-19T08:38:10.397Z,1001.50
2022-10-19T08:39:10.395Z,1001.52
2022-10-19T08:40:10.395Z,1001.46
2022-10-19T08:41:10.362Z,1001.44
2022-10-19T08:42:10.354Z,1001.46
2022-10-19T08:43:10.373Z,1001.46
2022-10-19T08:44:10.407Z,1001.42
2022-10-19T08:45:10.332Z,1001.42
2022-10-19T08:46:42.220Z,1001.49
2022-10-19T08:47:12.323Z,1001.42
2022-10-19T08:48:10.308Z,1001.37
2022-10-19T08:49:10.287Z,1001.39
2022-10-19T08:50:10.287Z,1001.32
2022-10-19T08:51:10.286Z,1001.37
2022-10-19T08:52:10.276Z,1001.37
2022-10-19T08:53:10.255Z,1001.24
2022-10-19T08:54:10.242Z,1001.30
2022-10-19T08:55:10.260Z,1001.30
2022-10-19T08:56:12.408Z,1001.26
2022-10-19T08:57:11.231Z,1001.27
2022-10-19T08:58:10.199Z,1001.27
2022-10-19T08:59:10.203Z,1001.19
2022-10-19T09:00:10.176Z,1001.17
2022-10-19T09:01:10.178Z,1001.22
2022-10-19T09:02:10.161Z,1001.22
2022-10-19T09:03:10.176Z,1001.19
2022-10-19T09:04:10.126Z,1001.12
2022-10-19T09:05:10.163Z,1001.15
2022-10-19T09:06:10.118Z,1001.10
2022-10-19T09:07:10.103Z,1001.16
2022-10-19T09:08:13.043Z,1001.10
2022-10-19T09:09:11.088Z,1001.09
2022-10-19T09:10:10.098Z,1001.09
2022-10-19T09:11:10.068Z,1001.14
2022-10-19T09:12:10.052Z,1001.16
2022-10-19T09:13:10.076Z,1001.04
2022-10-19T09:14:10.032Z,1001.06
2022-10-19T09:15:10.017Z,1001.04
2022-10-19T09:16:10.020Z,1001.01
2022-10-19T09:17:09.999Z,1001.02
2022-10-19T09:18:10.007Z,1001.07
2022-10-19T09:19:09.982Z,1001.07
2022-10-19T09:20:09.970Z,1001.08
2022-10-19T09:21:09.951Z,1001.02
2022-10-19T09:22:09.959Z,1000.99
2022-10-19T09:23:13.343Z,1000.97
2022-10-19T09:24:10.954Z,1000.94
2022-10-19T09:25:09.925Z,1000.98
2022-10-19T09:26:09.915Z,1000.98
2022-10-19T09:27:09.902Z,1000.96
2022-10-19T09:28:09.888Z,1000.89
2022-10-19T09:29:09.897Z,1000.92
2022-10-19T09:30:09.866Z,1000.94
2022-10-19T09:31:09.850Z,1000.94
2022-10-19T09:32:09.856Z,1000.90
2022-10-19T09:33:12.026Z,1000.96
2022-10-19T09:34:10.831Z,1000.94
2022-10-19T09:35:09.833Z,1000.98
2022-10-19T09:36:18.213Z,1000.94
2022-10-19T09:37:14.325Z,1000.95
2022-10-19T09:38:09.786Z,1000.91
2022-10-19T09:39:09.776Z,1000.97
2022-10-19T09:40:09.790Z,1000.93
2022-10-19T09:41:09.742Z,1000.96
2022-10-19T09:42:09.752Z,1000.93
2022-10-19T09:43:09.732Z,1000.85
2022-10-19T09:44:09.726Z,1000.88
2022-10-19T09:45:09.710Z,1000.87
2022-10-19T09:46:18.728Z,1000.92
2022-10-19T09:47:13.639Z,1000.89
2022-10-19T09:48:13.105Z,1000.91
2022-10-19T09:49:10.669Z,1000.96
2022-10-19T09:50:09.659Z,1000.92
2022-10-19T09:51:09.662Z,1000.91
2022-10-19T09:52:09.637Z,1000.89
2022-10-19T09:53:09.626Z,1000.89
2022-10-19T09:54:09.620Z,1000.83
2022-10-19T09:55:09.606Z,1000.86
2022-10-19T09:56:09.609Z,1000.95
2022-10-19T09:57:09.580Z,1000.88
2022-10-19T09:58:09.609Z,1000.87
2022-10-19T09:59:09.568Z,1000.84
2022-10-19T10:00:09.553Z,1000.84
2022-10-19T10:01:09.551Z,1000.89
2022-10-19T10:02:09.566Z,1000.84
2022-10-19T10:03:09.506Z,1000.87
2022-10-19T10:04:09.517Z,1000.86
2022-10-19T10:05:09.517Z,1000.84
2022-10-19T10:06:09.483Z,1000.86
2022-10-19T10:07:09.495Z,1000.86
2022-10-19T10:08:09.475Z,1000.87
2022-10-19T10:09:09.536Z,1000.82
2022-10-19T10:10:09.498Z,1000.89
2022-10-19T10:11:09.433Z,1000.78
2022-10-19T10:12:09.430Z,1000.82
2022-10-19T10:13:09.416Z,1000.77
2022-10-19T10:14:10.065Z,1000.81
2022-10-19T10:15:09.405Z,1000.84
2022-10-19T10:16:09.381Z,1000.84
2022-10-19T10:17:09.383Z,1000.84
2022-10-19T10:18:09.389Z,1000.77
2022-10-19T10:19:09.362Z,1000.73
2022-10-19T10:20:09.365Z,1000.68
2022-10-19T10:21:09.370Z,1000.69
2022-10-19T10:22:09.334Z,1000.75
2022-10-19T10:23:09.323Z,1000.68
2022-10-19T10:24:09.349Z,1000.69
2022-10-19T10:25:09.308Z,1000.72
2022-10-19T10:26:09.288Z,1000.70
2022-10-19T10:27:09.283Z,1000.68
2022-10-19T10:28:09.278Z,1000.67
2022-10-19T10:29:09.286Z,1000.59
2022-10-19T10:30:09.261Z,1000.68
2022-10-19T10:31:09.256Z,1000.70
2022-10-19T10:32:09.254Z,1000.67
2022-10-19T10:33:21.117Z,1000.60
2022-10-19T10:34:22.599Z,1000.59
2022-10-19T10:35:11.215Z,1000.68
2022-10-19T10:36:09.221Z,1000.67
2022-10-19T10:37:09.187Z,1000.70
2022-10-19T10:38:09.172Z,1000.62
2022-10-19T10:39:09.161Z,1000.66
2022-10-19T10:40:09.147Z,1000.73
2022-10-19T10:41:09.169Z,1000.65
2022-10-19T10:42:09.131Z,1000.65
2022-10-19T10:43:09.114Z,1000.61
2022-10-19T10:44:09.099Z,1000.64
2022-10-19T10:45:09.091Z,1000.64
2022-10-19T10:46:09.095Z,1000.60
2022-10-19T10:47:09.097Z,1000.59
2022-10-19T10:48:09.076Z,1000.57
2022-10-19T10:49:09.062Z,1000.56
2022-10-19T10:50:09.071Z,1000.58
2022-10-19T10:51:09.055Z,1000.54
2022-10-19T10:52:09.059Z,1000.54
2022-10-19T10:53:09.030Z,1000.49
2022-10-19T10:54:09.014Z,1000.54
2022-10-19T10:55:09.005Z,1000.51
2022-10-19T10:56:08.979Z,1000.49
2022-10-19T10:57:09.126Z,1000.52
2022-10-19T10:58:08.980Z,1000.45
2022-10-19T10:59:08.967Z,1000.43
2022-10-19T11:00:08.965Z,1000.47
2022-10-19T11:01:08.939Z,1000.46
2022-10-19T11:02:09.001Z,1000.44
2022-10-19T11:03:08.922Z,1000.46
2022-10-19T11:04:08.926Z,1000.40
2022-10-19T11:05:08.905Z,1000.41
2022-10-19T11:06:08.898Z,1000.38
2022-10-19T11:07:08.882Z,1000.39
2022-10-19T11:08:08.891Z,1000.38
2022-10-19T11:09:08.933Z,1000.33
2022-10-19T11:10:08.848Z,1000.40
2022-10-19T11:11:08.825Z,1000.32
2022-10-19T11:12:09.844Z,1000.33
2022-10-19T11:13:08.812Z,1000.28
2022-10-19T11:14:08.851Z,1000.30
2022-10-19T11:15:08.819Z,1000.21
2022-10-19T11:16:08.793Z,1000.28
2022-10-19T11:17:08.786Z,1000.27
2022-10-19T11:18:08.807Z,1000.24
2022-10-19T11:19:08.818Z,1000.24
2022-10-19T11:20:08.758Z,1000.29
2022-10-19T11:21:08.754Z,1000.20
2022-10-19T11:22:08.725Z,1000.17
2022-10-19T11:23:08.721Z,1000.14
2022-10-19T11:24:08.721Z,1000.11
2022-10-19T11:25:08.713Z,1000.09
2022-10-19T11:26:08.690Z,1000.13
2022-10-19T11:27:08.670Z,1000.07
2022-10-19T11:28:08.669Z,1000.07
2022-10-19T11:29:08.670Z,1000.03
2022-10-19T11:30:08.662Z,1000.07
2022-10-19T11:31:08.633Z,999.98
2022-10-19T11:32:09.554Z,999.98
2022-10-19T11:33:08.597Z,999.98
2022-10-19T11:34:08.598Z,999.90
2022-10-19T11:35:08.603Z,999.94
2022-10-19T11:36:08.584Z,999.99
2022-10-19T11:37:08.575Z,999.96
2022-10-19T11:38:19.753Z,999.97
2022-10-19T11:39:09.572Z,999.94
2022-10-19T11:40:08.537Z,999.99
2022-10-19T11:41:23.869Z,999.95
2022-10-19T11:42:10.528Z,999.88
2022-10-19T11:43:08.517Z,999.93
2022-10-19T11:44:08.512Z,999.84
2022-10-19T11:45:09.097Z,999.83
2022-10-19T11:46:09.945Z,999.87
2022-10-19T11:47:08.467Z,999.77
2022-10-19T11:48:08.453Z,999.78
2022-10-19T11:49:08.465Z,999.72
2022-10-19T11:51:21.009Z,999.67
2022-10-19T11:52:10.415Z,999.65
2022-10-19T11:53:08.418Z,999.65
2022-10-19T11:54:13.769Z,999.66
2022-10-19T11:55:08.394Z,999.58
2022-10-19T11:56:08.399Z,999.58
2022-10-19T11:57:11.516Z,999.52
2022-10-19T11:58:09.372Z,999.55
2022-10-19T11:59:08.409Z,999.51
2022-10-19T12:00:14.549Z,999.54
2022-10-19T12:01:10.342Z,999.45
2022-10-19T12:02:08.399Z,999.44
2022-10-19T12:03:08.307Z,999.46
2022-10-19T12:04:08.297Z,999.48
2022-10-19T12:05:09.297Z,999.41
2022-10-19T12:06:08.293Z,999.37
2022-10-19T12:07:08.285Z,999.40
2022-10-19T12:08:08.309Z,999.47
2022-10-19T12:09:08.364Z,999.42
2022-10-19T12:10:08.230Z,999.35
2022-10-19T12:11:08.227Z,999.40